Woodlawn Park, Indiana
Current Conditions -  °F | °C
As of 6:53 PM on Sunday 21 Dec 2014 (Local Time) from KMIE Reporting Station
Haze Haze  
Wind Chill: 24°   Ceiling: Unl
Heat Index: 29°   Visibility: 5mi
Dew Point: 26°   Wind: 5mph
Humidity: 89%   Direction: 120°ESE
Pressure: 30.15"   Gusts: NA
Location:  40.2763°N, 85.3769°W
Report Text: KMIE 212353Z 12004KT 5SM BR CLR M02/M03 A3015 RMK AO2 SLP218 T10171033 10028 21017 58002
Loading
Personal Weather Stations






























Interactive Weather Map New forecast layout! Learn more

10-Day Weather Forecast

Advertisements
Track Severe Weather on mobile